createdAt,value
2022-08-14T00:03:29.110Z,14.54
2022-08-14T00:14:28.806Z,14.24
2022-08-14T00:25:41.725Z,14.14
2022-08-14T00:36:48.530Z,14.05
2022-08-14T00:47:43.275Z,13.95
2022-08-14T00:58:48.349Z,13.75
2022-08-14T01:09:45.738Z,13.56
2022-08-14T01:20:47.382Z,13.36
2022-08-14T01:31:46.489Z,13.26
2022-08-14T01:42:51.027Z,13.17
2022-08-14T01:53:55.290Z,13.07
2022-08-14T02:04:57.801Z,12.97
2022-08-14T02:15:57.152Z,12.87
2022-08-14T02:28:25.652Z,12.87
2022-08-14T02:38:07.573Z,12.78
2022-08-14T02:49:14.165Z,12.68
2022-08-14T03:00:18.691Z,12.68
2022-08-14T03:11:13.873Z,12.48
2022-08-14T03:22:17.992Z,12.38
2022-08-14T03:33:19.910Z,12.29
2022-08-14T03:45:25.584Z,12.29
2022-08-14T03:55:30.190Z,12.19
2022-08-14T04:06:32.158Z,12.19
2022-08-14T04:17:35.791Z,12.19
2022-08-14T04:29:07.301Z,12.19
2022-08-14T04:39:46.453Z,12.38
2022-08-14T04:50:49.128Z,12.68
2022-08-14T05:01:56.497Z,12.97
2022-08-14T05:13:14.083Z,13.26
2022-08-14T05:24:04.746Z,13.66
2022-08-14T05:35:05.666Z,14.05
2022-08-14T05:46:10.335Z,14.44
2022-08-14T05:57:17.407Z,15.03
2022-08-14T06:08:21.817Z,15.71
2022-08-14T06:19:26.312Z,16.49
2022-08-14T06:30:30.451Z,16.98
2022-08-14T06:41:35.983Z,17.47
2022-08-14T06:52:37.828Z,17.76
2022-08-14T07:03:39.874Z,18.45
2022-08-14T07:14:43.705Z,19.03
2022-08-14T07:25:43.799Z,19.62
2022-08-14T07:36:58.112Z,20.11
2022-08-14T07:47:48.574Z,20.50
2022-08-14T07:58:51.744Z,20.80
2022-08-14T08:09:53.339Z,21.38
2022-08-14T08:20:51.997Z,21.77
2022-08-14T08:31:45.947Z,22.16
2022-08-14T08:42:44.813Z,22.65
2022-08-14T08:53:39.365Z,23.14
2022-08-14T09:04:49.978Z,24.02
2022-08-14T09:15:43.908Z,24.32
2022-08-14T09:26:49.431Z,24.42
2022-08-14T09:37:49.923Z,25.59
2022-08-14T09:48:51.458Z,25.19
2022-08-14T09:59:56.440Z,26.07
2022-08-14T10:10:57.144Z,26.47
2022-08-14T10:23:14.401Z,26.56
2022-08-14T10:33:00.295Z,26.56
2022-08-14T10:43:59.783Z,27.25
2022-08-14T10:55:00.088Z,28.13
2022-08-14T11:06:00.648Z,29.30
2022-08-14T11:16:35.136Z,29.60
2022-08-14T11:27:33.414Z,29.40
2022-08-14T11:38:25.822Z,30.87
2022-08-14T11:49:22.083Z,35.95
2022-08-14T12:00:21.413Z,35.95
2022-08-14T12:11:23.241Z,34.78
2022-08-14T12:22:29.968Z,36.34
2022-08-14T12:33:19.320Z,36.54
2022-08-14T12:44:15.834Z,34.97
2022-08-14T12:55:13.960Z,29.60
2022-08-14T13:06:13.124Z,34.49
2022-08-14T13:17:08.380Z,34.00
2022-08-14T13:28:11.070Z,37.42
2022-08-14T13:39:13.035Z,35.76
2022-08-14T13:50:09.770Z,37.13
2022-08-14T14:01:07.644Z,31.94
2022-08-14T14:12:37.306Z,34.29
2022-08-14T14:23:17.558Z,38.01
2022-08-14T14:34:29.178Z,41.92
2022-08-14T14:45:10.428Z,31.26
2022-08-14T14:56:48.283Z,29.20
2022-08-14T15:06:58.896Z,28.52
2022-08-14T15:17:56.888Z,28.23
2022-08-14T15:29:03.121Z,27.64
2022-08-14T15:39:58.914Z,27.25
2022-08-14T15:50:52.091Z,27.35
2022-08-14T16:01:55.516Z,28.62
2022-08-14T16:12:41.880Z,28.42
2022-08-14T16:23:42.443Z,27.74
2022-08-14T16:34:46.221Z,27.35
2022-08-14T16:45:44.251Z,27.25
2022-08-14T16:56:40.735Z,26.96
2022-08-14T17:07:43.140Z,26.66
2022-08-14T17:18:42.619Z,26.47
2022-08-14T17:29:56.093Z,26.07
2022-08-14T17:40:40.951Z,25.19
2022-08-14T17:51:39.169Z,24.51
2022-08-14T18:02:39.078Z,24.02
2022-08-14T18:13:52.082Z,23.63
2022-08-14T18:24:38.952Z,23.14
2022-08-14T18:35:45.614Z,23.05
2022-08-14T18:47:03.266Z,22.75
2022-08-14T18:57:40.470Z,22.46
2022-08-14T19:08:39.602Z,22.26
2022-08-14T19:19:40.654Z,21.87
2022-08-14T19:30:38.335Z,21.58
2022-08-14T19:41:36.838Z,21.48
2022-08-14T19:52:38.846Z,21.77
2022-08-14T20:04:00.491Z,21.48
2022-08-14T20:14:28.092Z,21.58
2022-08-14T20:25:22.647Z,21.68
2022-08-14T20:36:25.932Z,21.68
2022-08-14T20:47:21.955Z,21.48
2022-08-14T20:58:45.716Z,21.09
2022-08-14T21:10:03.111Z,20.70
2022-08-14T21:20:28.953Z,20.40
2022-08-14T21:31:23.773Z,20.11
2022-08-14T21:42:22.703Z,19.92
2022-08-14T21:53:26.226Z,19.82
2022-08-14T22:04:33.297Z,19.82
2022-08-14T22:15:34.921Z,19.52
2022-08-14T22:26:35.352Z,19.13
2022-08-14T22:37:35.934Z,18.84
2022-08-14T22:48:38.965Z,18.45
2022-08-14T22:59:39.830Z,18.15
2022-08-14T23:10:37.899Z,17.96
2022-08-14T23:21:38.371Z,17.76
2022-08-14T23:32:43.206Z,17.76
2022-08-14T23:43:46.232Z,17.76
2022-08-14T23:54:49.141Z,17.86
